Time;durP1;ratioP1;P1;durP2;ratioP2;P2;SDS_P1;SDS_P2;PMS_P1;PMS_P2;Temp;Humidity;BMP_temperature;BMP_pressure;BME280_temperature;BME280_humidity;BME280_pressure;Samples;Min_cycle;Max_cycle;Signal;HPM_P1;HPM_P2
2021/04/19 00:00:35;;;;;;;43.00;23.17;;;;;;;1.64;100.00;99485.50;1715801;83;20955;-71
2021/04/19 00:03:04;;;;;;;30.75;18.50;;;;;;;1.63;100.00;99490.97;1715649;83;20960;-70
2021/04/19 00:05:32;;;;;;;26.10;15.72;;;;;;;1.58;100.00;99487.59;1715302;83;21614;-72
2021/04/19 00:08:03;;;;;;;20.75;13.35;;;;;;;1.58;100.00;99481.48;1715480;83;20995;-72
2021/04/19 00:10:31;;;;;;;21.42;14.53;;;;;;;1.58;100.00;99485.45;1715634;83;21611;-71
2021/04/19 00:12:59;;;;;;;21.87;13.95;;;;;;;1.55;100.00;99480.57;1715334;83;22345;-71
2021/04/19 00:15:31;;;;;;;25.05;13.15;;;;;;;1.51;100.00;99478.80;1691273;83;21165;-71
2021/04/19 00:18:01;;;;;;;22.20;13.80;;;;;;;1.47;100.00;99479.72;1715125;82;21367;-71
2021/04/19 00:20:31;;;;;;;44.18;19.05;;;;;;;1.42;100.00;99484.78;1715288;83;21022;-71
2021/04/19 00:23:00;;;;;;;48.55;23.10;;;;;;;1.35;100.00;99477.32;1715484;83;21192;-72
2021/04/19 00:25:29;;;;;;;76.00;30.82;;;;;;;1.32;100.00;99480.84;1715351;83;21594;-72
2021/04/19 00:27:59;;;;;;;77.22;33.40;;;;;;;1.27;100.00;99478.30;1715649;83;21046;-71
2021/04/19 00:30:27;;;;;;;92.08;36.42;;;;;;;1.23;100.00;99481.52;1715487;83;21886;-71
2021/04/19 00:32:55;;;;;;;78.70;35.68;;;;;;;1.20;100.00;99482.73;1715407;83;21090;-71
2021/04/19 00:35:24;;;;;;;82.20;33.92;;;;;;;1.17;100.00;99478.32;1715428;83;21007;-71
2021/04/19 00:37:51;;;;;;;64.72;30.40;;;;;;;1.16;100.00;99481.48;1715805;83;21046;-71
2021/04/19 00:40:21;;;;;;;67.92;28.90;;;;;;;1.13;100.00;99476.58;1715674;83;20951;-72
2021/04/19 00:42:52;;;;;;;45.70;22.45;;;;;;;1.14;100.00;99474.23;1715420;83;21759;-72
2021/04/19 00:45:20;;;;;;;50.65;24.32;;;;;;;1.12;100.00;99480.22;1715345;83;21054;-72
2021/04/19 00:47:49;;;;;;;44.08;22.15;;;;;;;1.00;100.00;99472.00;1715620;83;21169;-72
2021/04/19 00:50:24;;;;;;;38.98;19.62;;;;;;;0.89;100.00;99470.42;1715546;83;20943;-72
2021/04/19 00:52:52;;;;;;;51.33;23.47;;;;;;;0.80;100.00;99469.73;1715560;83;21109;-71
2021/04/19 00:55:22;;;;;;;60.28;27.15;;;;;;;0.75;100.00;99462.90;1715437;83;21251;-71
2021/04/19 00:57:50;;;;;;;41.37;19.27;;;;;;;0.74;100.00;99466.05;1715405;83;21580;-72
2021/04/19 01:00:23;;;;;;;58.93;23.77;;;;;;;0.70;100.00;99468.75;1715788;83;21070;-70
2021/04/19 01:02:52;;;;;;;32.63;18.23;;;;;;;0.72;100.00;99465.93;1715584;83;21558;-71
2021/04/19 01:05:25;;;;;;;49.93;23.20;;;;;;;0.69;100.00;99473.73;1715476;83;21574;-72
2021/04/19 01:07:53;;;;;;;32.08;17.37;;;;;;;0.73;100.00;99462.27;1715510;83;21635;-71
2021/04/19 01:10:22;;;;;;;32.20;19.30;;;;;;;0.80;100.00;99463.14;1715533;83;21042;-72
2021/04/19 01:12:53;;;;;;;40.23;17.95;;;;;;;0.83;100.00;99464.06;1715554;83;21028;-72
2021/04/19 01:15:21;;;;;;;26.82;16.52;;;;;;;0.81;100.00;99462.14;1715283;83;21177;-72
2021/04/19 01:17:50;;;;;;;49.70;23.55;;;;;;;0.80;100.00;99459.98;1715440;82;21181;-71
2021/04/19 01:20:23;;;;;;;28.38;18.27;;;;;;;0.78;100.00;99462.51;1712825;83;21676;-71
2021/04/19 01:22:52;;;;;;;25.77;16.17;;;;;;;0.77;100.00;99461.70;1712217;83;21145;-72
2021/04/19 01:25:27;;;;;;;28.92;16.00;;;;;;;0.79;100.00;99462.33;1712486;83;21134;-71
2021/04/19 01:27:56;;;;;;;25.77;15.40;;;;;;;0.85;100.00;99466.02;1712703;83;21054;-71
2021/04/19 01:30:31;;;;;;;28.17;15.83;;;;;;;0.90;100.00;99466.77;1712471;83;20983;-71
2021/04/19 01:32:59;;;;;;;26.12;15.03;;;;;;;0.94;100.00;99463.55;1712673;83;21373;-72
2021/04/19 01:35:28;;;;;;;24.98;16.12;;;;;;;0.94;100.00;99464.05;1712618;83;21526;-72
2021/04/19 01:37:56;;;;;;;26.65;15.00;;;;;;;0.86;100.00;99462.38;1712802;83;21054;-71
2021/04/19 01:40:24;;;;;;;21.48;14.45;;;;;;;0.78;100.00;99460.67;1712635;83;20971;-71
2021/04/19 01:42:52;;;;;;;23.65;15.45;;;;;;;0.79;100.00;99454.40;1712751;83;21641;-71
2021/04/19 01:45:20;;;;;;;25.17;15.35;;;;;;;0.80;100.00;99456.53;1712720;83;21627;-72
2021/04/19 01:47:50;;;;;;;26.65;16.15;;;;;;;0.79;100.00;99446.98;1712707;83;20959;-72
2021/04/19 01:50:23;;;;;;;29.48;16.60;;;;;;;0.78;100.00;99454.58;1686808;83;20939;-72
2021/04/19 01:52:56;;;;;;;36.48;19.57;;;;;;;0.72;100.00;99449.57;1712556;83;21014;-72
2021/04/19 01:55:26;;;;;;;31.42;18.32;;;;;;;0.68;100.00;99456.75;1686508;83;21562;-72
2021/04/19 01:58:02;;;;;;;31.30;16.45;;;;;;;0.63;100.00;99453.36;1712637;83;21371;-71
2021/04/19 02:00:33;;;;;;;33.80;19.42;;;;;;;0.58;100.00;99461.84;1712527;83;21189;-72
2021/04/19 02:03:29;;;;;;;51.37;20.40;;;;;;;0.58;100.00;99454.44;1712544;83;21134;-71
2021/04/19 02:06:08;;;;;;;65.72;28.90;;;;;;;0.60;100.00;99454.55;1711725;83;21172;-71
2021/04/19 02:09:18;;;;;;;71.53;31.20;;;;;;;0.63;100.00;99448.88;1712743;83;21047;-72
2021/04/19 02:12:12;;;;;;;55.10;23.73;;;;;;;0.64;100.00;99456.33;1712581;83;21335;-72
2021/04/19 02:15:05;;;;;;;53.00;24.72;;;;;;;0.62;100.00;99455.19;1712534;83;21046;-71
2021/04/19 02:17:43;;;;;;;57.75;25.00;;;;;;;0.70;100.00;99448.94;1712583;83;21066;-71
2021/04/19 02:20:40;;;;;;;26.23;13.90;;;;;;;0.75;100.00;99456.30;1715024;82;21580;-70
2021/04/19 02:23:32;;;;;;;33.80;19.45;;;;;;;0.76;100.00;99456.59;1695521;83;21066;-70
2021/04/19 02:26:22;;;;;;;42.27;20.85;;;;;;;0.75;100.00;99458.94;1715501;83;21569;-71
2021/04/19 02:28:55;;;;;;;47.85;22.35;;;;;;;0.73;100.00;99455.66;1715357;83;21090;-70
2021/04/19 02:31:23;;;;;;;44.03;21.42;;;;;;;0.74;100.00;99453.35;1715319;83;21199;-69
2021/04/19 02:33:57;;;;;;;34.95;18.70;;;;;;;0.70;100.00;99448.12;1715253;83;21145;-70
2021/04/19 02:36:27;;;;;;;65.28;29.85;;;;;;;0.64;100.00;99446.57;1715314;83;21066;-70
2021/04/19 02:38:57;;;;;;;150.93;48.42;;;;;;;0.68;100.00;99454.11;1715452;83;21384;-70
2021/04/19 02:41:25;;;;;;;218.52;72.35;;;;;;;0.72;100.00;99454.85;1715589;83;20916;-70
2021/04/19 02:43:53;;;;;;;290.77;93.50;;;;;;;0.72;100.00;99451.40;1691351;83;21034;-71
2021/04/19 02:46:32;;;;;;;169.62;61.53;;;;;;;0.71;100.00;99452.39;1693638;83;20971;-71
2021/04/19 02:49:01;;;;;;;124.90;43.60;;;;;;;0.67;100.00;99445.37;1715561;83;21548;-72
2021/04/19 02:51:29;;;;;;;98.78;38.63;;;;;;;0.63;100.00;99446.75;1715219;83;22297;-72
2021/04/19 02:53:58;;;;;;;70.30;28.30;;;;;;;0.61;100.00;99444.32;1715426;83;20960;-73
2021/04/19 02:56:29;;;;;;;62.23;27.60;;;;;;;0.54;100.00;99447.41;1715549;83;21102;-72
2021/04/19 02:59:00;;;;;;;79.37;31.97;;;;;;;0.48;100.00;99452.13;1715340;83;20952;-71
2021/04/19 03:01:32;;;;;;;92.30;33.15;;;;;;;0.34;100.00;99444.61;1714418;83;21477;-71
2021/04/19 03:04:15;;;;;;;91.40;34.58;;;;;;;0.29;100.00;99442.20;1715387;83;21368;-71
2021/04/19 03:06:55;;;;;;;52.25;22.05;;;;;;;0.27;100.00;99446.84;1712502;83;21098;-72
2021/04/19 03:09:24;;;;;;;114.60;43.48;;;;;;;0.30;100.00;99453.91;1715421;83;21043;-71
2021/04/19 03:12:02;;;;;;;84.87;34.08;;;;;;;0.30;100.00;99449.95;1715386;83;21786;-71
2021/04/19 03:14:37;;;;;;;305.02;107.10;;;;;;;0.32;100.00;99452.37;1715289;83;20991;-71
2021/04/19 03:17:15;;;;;;;486.20;171.45;;;;;;;0.39;100.00;99448.81;1715347;83;22525;-71
2021/04/19 03:20:23;;;;;;;516.23;199.15;;;;;;;0.56;100.00;99444.56;1836197;77;28383;-71
2021/04/19 03:22:56;;;;;;;234.10;82.75;;;;;;;0.60;100.00;99442.67;1817931;78;21547;-72
2021/04/19 03:25:28;;;;;;;98.70;40.38;;;;;;;0.69;100.00;99448.64;1750026;81;20999;-72
2021/04/19 03:27:57;;;;;;;68.65;35.00;;;;;;;0.76;100.00;99453.47;1820059;78;28773;-72
2021/04/19 03:30:26;;;;;;;74.40;36.75;;;;;;;0.80;100.00;99451.25;1819892;78;20996;-72
2021/04/19 03:32:58;;;;;;;90.57;39.58;;;;;;;0.91;100.00;99449.41;1793925;78;21573;-71
2021/04/19 03:35:33;;;;;;;35.88;21.23;;;;;;;1.03;100.00;99453.65;1815054;78;21125;-69
2021/04/19 03:38:04;;;;;;;59.30;30.72;;;;;;;1.16;100.00;99451.58;1750093;82;21392;-71
2021/04/19 03:40:34;;;;;;;76.20;31.60;;;;;;;1.30;100.00;99454.61;1819712;78;20888;-70
2021/04/19 03:43:08;;;;;;;59.63;27.45;;;;;;;1.48;100.00;99448.27;1749592;82;20955;-69
2021/04/19 03:45:39;;;;;;;78.65;34.33;;;;;;;1.62;100.00;99453.13;1819791;78;21585;-71
2021/04/19 03:48:25;;;;;;;108.57;42.55;;;;;;;1.77;100.00;99454.29;1650068;86;21214;-69
2021/04/19 03:51:04;;;;;;;76.07;34.70;;;;;;;1.98;100.00;99450.67;1677432;85;21228;-71
2021/04/19 03:53:40;;;;;;;81.72;34.10;;;;;;;2.24;100.00;99454.39;1777003;79;22440;-71
2021/04/19 03:56:09;;;;;;;100.72;40.48;;;;;;;2.34;100.00;99455.62;1745058;82;21470;-71
2021/04/19 03:58:39;;;;;;;66.92;32.13;;;;;;;2.48;100.00;99455.64;1747530;82;21795;-71
2021/04/19 04:01:07;;;;;;;86.28;30.10;;;;;;;2.69;100.00;99458.58;1749516;82;21665;-72
2021/04/19 04:03:41;;;;;;;97.70;37.60;;;;;;;2.86;100.00;99455.00;1748254;82;20952;-72
2021/04/19 04:06:16;;;;;;;77.17;29.52;;;;;;;3.04;100.00;99451.70;1743849;82;21011;-72
2021/04/19 04:08:45;;;;;;;56.77;23.15;;;;;;;3.27;100.00;99459.22;1749408;82;21004;-72
2021/04/19 04:11:15;;;;;;;50.58;23.00;;;;;;;3.46;100.00;99453.56;1749700;82;25676;-73
2021/04/19 04:13:43;;;;;;;64.35;24.12;;;;;;;3.63;100.00;99450.73;1720581;82;21003;-71
2021/04/19 04:16:11;;;;;;;44.10;21.87;;;;;;;3.85;100.00;99448.06;1749503;82;20928;-71
2021/04/19 04:18:41;;;;;;;33.40;19.42;;;;;;;4.07;100.00;99456.52;1744422;82;21470;-72
2021/04/19 04:21:11;;;;;;;25.02;16.35;;;;;;;4.30;100.00;99453.82;1749582;82;21912;-71
2021/04/19 04:23:42;;;;;;;20.00;13.50;;;;;;;4.56;100.00;99458.63;1715194;82;21349;-72
2021/04/19 04:26:11;;;;;;;18.48;14.45;;;;;;;4.62;100.00;99462.56;1749461;82;21638;-72
2021/04/19 04:28:40;;;;;;;19.67;13.20;;;;;;;4.62;100.00;99463.09;1749509;82;21059;-72
2021/04/19 04:31:11;;;;;;;20.15;10.68;;;;;;;4.69;100.00;99459.87;1749590;82;20877;-73
2021/04/19 04:33:46;;;;;;;16.60;11.90;;;;;;;4.85;100.00;99462.48;1748631;82;21141;-72
2021/04/19 04:36:16;;;;;;;21.23;13.55;;;;;;;5.00;100.00;99458.98;1748854;82;22240;-73
2021/04/19 04:38:46;;;;;;;14.85;10.75;;;;;;;5.15;100.00;99459.95;1749226;82;21015;-72
2021/04/19 04:41:17;;;;;;;16.17;9.83;;;;;;;5.27;100.00;99461.38;1748906;82;20987;-73
2021/04/19 04:43:49;;;;;;;17.02;10.03;;;;;;;5.33;100.00;99464.47;1749387;82;21134;-71
2021/04/19 04:46:40;;;;;;;22.25;11.45;;;;;;;5.46;100.00;99460.31;1749379;81;20924;-70
2021/04/19 04:49:18;;;;;;;17.70;10.25;;;;;;;5.62;100.00;99464.23;1749098;82;21486;-71
2021/04/19 04:51:46;;;;;;;14.03;8.10;;;;;;;5.76;100.00;99467.56;1747914;81;21014;-72
2021/04/19 04:54:17;;;;;;;14.68;9.33;;;;;;;5.82;100.00;99471.98;1739964;82;21126;-72
2021/04/19 04:56:49;;;;;;;19.82;12.28;;;;;;;5.95;100.00;99471.85;1736311;82;21143;-72
2021/04/19 04:59:16;;;;;;;22.90;12.35;;;;;;;6.14;100.00;99466.46;1734917;82;21193;-72
2021/04/19 05:01:44;;;;;;;21.42;11.18;;;;;;;6.23;100.00;99471.77;1734717;82;21639;-74
2021/04/19 05:04:12;;;;;;;23.40;11.30;;;;;;;6.27;100.00;99469.45;1735076;82;21039;-73
2021/04/19 05:06:45;;;;;;;21.70;13.88;;;;;;;6.29;100.00;99468.70;1734776;82;21079;-73
2021/04/19 05:09:13;;;;;;;33.48;19.98;;;;;;;6.34;100.00;99464.84;1734756;82;21201;-73
2021/04/19 05:11:42;;;;;;;8.65;6.65;;;;;;;6.38;100.00;99464.16;1734582;82;21134;-72
2021/04/19 05:14:11;;;;;;;12.18;8.00;;;;;;;6.43;100.00;99463.48;1734858;82;21201;-72
2021/04/19 05:16:39;;;;;;;13.25;6.85;;;;;;;6.42;100.00;99457.34;1734664;82;21024;-70
2021/04/19 05:19:08;;;;;;;11.75;6.92;;;;;;;6.49;100.00;99458.55;1734615;82;21674;-70
2021/04/19 05:21:38;;;;;;;11.65;8.48;;;;;;;6.60;100.00;99463.09;1734730;82;21127;-69
2021/04/19 05:24:08;;;;;;;15.50;6.75;;;;;;;6.79;100.00;99465.69;1738612;81;21122;-71
2021/04/19 05:26:36;;;;;;;8.10;5.55;;;;;;;6.91;100.00;99465.17;1733444;82;22321;-70
2021/04/19 05:29:04;;;;;;;5.72;5.12;;;;;;;6.99;100.00;99468.01;1734271;82;21146;-70
2021/04/19 05:31:32;;;;;;;8.40;5.50;;;;;;;7.02;100.00;99465.67;1713541;82;21208;-67
2021/04/19 05:34:00;;;;;;;19.02;10.18;;;;;;;7.16;100.00;99471.59;1734401;82;21622;-70
2021/04/19 05:36:28;;;;;;;11.97;8.40;;;;;;;7.28;100.00;99471.59;1734286;82;21159;-69
2021/04/19 05:38:56;;;;;;;16.82;9.40;;;;;;;7.50;100.00;99470.45;1734543;82;21366;-70
2021/04/19 05:41:24;;;;;;;9.90;6.65;;;;;;;7.72;100.00;99470.64;1734362;82;21142;-71
2021/04/19 05:43:53;;;;;;;11.45;6.45;;;;;;;7.84;100.00;99467.41;1737363;81;21184;-69
2021/04/19 05:46:30;;;;;;;10.30;7.80;;;;;;;7.80;100.00;99463.57;1734307;82;21035;-70
2021/04/19 05:48:58;;;;;;;11.33;6.78;;;;;;;8.09;100.00;99468.94;1738086;82;26519;-69
2021/04/19 05:51:31;;;;;;;9.20;6.33;;;;;;;8.29;100.00;99465.28;1734381;82;21382;-70
2021/04/19 05:54:02;;;;;;;8.28;6.35;;;;;;;8.61;100.00;99466.11;1746305;82;21241;-70
2021/04/19 05:56:52;;;;;;;12.50;7.78;;;;;;;8.80;100.00;99465.34;1747966;81;21141;-71
2021/04/19 05:59:43;;;;;;;11.38;7.67;;;;;;;8.98;100.00;99458.38;1747970;82;27136;-71
2021/04/19 06:02:14;;;;;;;10.00;6.80;;;;;;;9.27;100.00;99458.26;1772688;80;21125;-72
2021/04/19 06:04:56;;;;;;;12.98;6.55;;;;;;;9.54;100.00;99467.72;1772619;80;21706;-71
2021/04/19 06:07:43;;;;;;;28.10;14.25;;;;;;;9.63;100.00;99460.87;1771476;81;21215;-71
2021/04/19 06:10:39;;;;;;;13.13;9.25;;;;;;;9.92;100.00;99457.16;1768013;80;21211;-70
2021/04/19 06:13:14;;;;;;;13.60;7.92;;;;;;;10.06;100.00;99463.21;1771854;80;21192;-69
2021/04/19 06:15:45;;;;;;;17.50;10.32;;;;;;;10.29;100.00;99461.34;1772265;80;21113;-70
2021/04/19 06:18:14;;;;;;;15.50;9.20;;;;;;;10.55;100.00;99466.92;1772050;80;22099;-70
2021/04/19 06:20:45;;;;;;;12.18;6.97;;;;;;;10.70;100.00;99463.02;1771876;81;21066;-70
2021/04/19 06:23:14;;;;;;;7.37;6.20;;;;;;;10.82;100.00;99465.53;1772406;81;21513;-70
2021/04/19 06:25:44;;;;;;;5.85;5.20;;;;;;;11.18;100.00;99467.13;1771991;81;21196;-70
2021/04/19 06:28:12;;;;;;;10.95;5.72;;;;;;;11.59;100.00;99469.48;1772257;81;21152;-69
2021/04/19 06:30:44;;;;;;;18.25;14.47;;;;;;;11.79;99.42;99463.38;1772302;80;21374;-69
2021/04/19 06:33:16;;;;;;;12.37;7.50;;;;;;;11.84;97.60;99465.28;1771761;80;21410;-71
2021/04/19 06:35:46;;;;;;;6.87;5.20;;;;;;;12.06;97.95;99457.84;1771508;80;21164;-70
2021/04/19 06:38:15;;;;;;;7.75;5.00;;;;;;;12.26;95.11;99461.64;1771677;81;21177;-70
2021/04/19 06:40:45;;;;;;;8.73;4.67;;;;;;;12.37;94.91;99459.22;1772575;81;21125;-71
2021/04/19 06:43:13;;;;;;;6.17;5.17;;;;;;;12.43;94.32;99459.51;1771832;80;22405;-70
2021/04/19 06:45:41;;;;;;;7.12;5.78;;;;;;;12.27;93.54;99460.55;1772643;80;21121;-70
2021/04/19 06:48:11;;;;;;;9.58;5.35;;;;;;;12.51;92.85;99463.55;1772799;80;21113;-70
2021/04/19 06:50:41;;;;;;;5.80;4.10;;;;;;;12.79;92.62;99458.98;1772088;81;21125;-72
2021/04/19 06:53:09;;;;;;;3.42;2.92;;;;;;;12.87;89.38;99462.46;1772889;80;21133;-71
2021/04/19 06:55:38;;;;;;;3.80;3.35;;;;;;;12.65;87.30;99457.36;1772630;81;22311;-72
2021/04/19 06:58:08;;;;;;;3.45;3.15;;;;;;;12.54;87.34;99457.10;1772964;80;21061;-72
2021/04/19 07:00:36;;;;;;;4.20;3.30;;;;;;;12.49;86.59;99458.97;1770842;81;21205;-72
2021/04/19 07:03:05;;;;;;;4.12;3.72;;;;;;;12.47;87.76;99457.08;1769105;81;21113;-70
2021/04/19 07:05:36;;;;;;;5.30;3.95;;;;;;;12.51;87.29;99459.51;1769672;80;21526;-70
2021/04/19 07:08:23;;;;;;;5.55;4.60;;;;;;;12.61;87.55;99454.92;1769404;81;21361;-72
2021/04/19 07:10:57;;;;;;;4.87;4.35;;;;;;;12.76;86.79;99460.04;1769864;81;21200;-74
2021/04/19 07:13:24;;;;;;;6.75;4.83;;;;;;;12.85;88.59;99452.49;1774061;79;21267;-70
2021/04/19 07:15:52;;;;;;;4.03;3.60;;;;;;;12.86;86.52;99454.64;1730508;82;21554;-73
2021/04/19 07:18:20;;;;;;;4.90;4.40;;;;;;;12.94;87.61;99450.62;1730315;82;21150;-70
2021/04/19 07:20:50;;;;;;;7.08;4.42;;;;;;;12.95;87.01;99450.88;1730230;82;21279;-70
2021/04/19 07:23:18;;;;;;;4.28;3.70;;;;;;;13.16;86.72;99453.00;1730090;82;21142;-69
2021/04/19 07:25:47;;;;;;;;;;;;;;;13.24;85.55;99450.54;1731832;82;21143;-70
2021/04/19 07:28:16;;;;;;;6.42;5.37;;;;;;;13.38;85.01;99458.09;1730023;82;20297;-69
2021/04/19 07:30:45;;;;;;;5.87;3.95;;;;;;;13.49;84.97;99446.98;1739521;82;21491;-72
2021/04/19 07:33:27;;;;;;;7.75;5.08;;;;;;;13.39;83.85;99446.22;1729595;81;22067;-73
2021/04/19 07:35:55;;;;;;;7.03;4.28;;;;;;;13.23;84.94;99442.75;1739321;82;21209;-70
2021/04/19 07:38:31;;;;;;;7.17;5.03;;;;;;;13.11;85.48;99433.61;1730290;82;21182;-71
2021/04/19 07:40:59;;;;;;;6.22;4.15;;;;;;;12.98;86.10;99436.30;1739228;82;21135;-72
2021/04/19 07:43:27;;;;;;;6.87;4.62;;;;;;;12.92;85.04;99440.10;1730227;82;21155;-72
2021/04/19 07:46:13;;;;;;;6.50;5.12;;;;;;;12.50;85.77;99434.48;1739458;82;21639;-71
2021/04/19 07:48:48;;;;;;;7.10;5.42;;;;;;;12.64;88.24;99424.79;1730330;82;21281;-71
2021/04/19 07:51:35;;;;;;;7.35;4.90;;;;;;;12.96;88.02;99427.71;1739141;82;21194;-70
2021/04/19 07:54:16;;;;;;;6.03;4.87;;;;;;;13.11;88.39;99428.77;1730775;82;21670;-71
2021/04/19 07:56:55;;;;;;;10.15;7.30;;;;;;;13.15;85.85;99421.73;1739249;82;21186;-70
2021/04/19 07:59:26;;;;;;;6.40;5.05;;;;;;;13.54;86.80;99427.28;1730318;82;21372;-71
2021/04/19 08:02:04;;;;;;;8.90;6.33;;;;;;;13.53;86.61;99419.48;1729957;81;21076;-73
2021/04/19 08:04:33;;;;;;;7.33;5.65;;;;;;;13.52;87.52;99425.40;1725516;83;21044;-71
2021/04/19 08:07:02;;;;;;;5.28;4.75;;;;;;;13.75;86.73;99425.31;1725464;82;21115;-70
2021/04/19 08:09:31;;;;;;;8.65;5.83;;;;;;;13.57;84.00;99425.92;1725009;83;21250;-70
2021/04/19 08:12:09;;;;;;;6.60;4.67;;;;;;;13.40;83.87;99408.73;1725497;83;21284;-72
2021/04/19 08:14:53;;;;;;;6.90;5.05;;;;;;;13.35;83.94;99417.67;1725328;83;21044;-72
2021/04/19 08:17:23;;;;;;;5.35;4.83;;;;;;;13.55;84.66;99408.69;1724823;82;21241;-71
2021/04/19 08:19:51;;;;;;;9.63;6.55;;;;;;;13.78;82.80;99414.50;1695240;83;21115;-70
2021/04/19 08:22:29;;;;;;;5.37;4.40;;;;;;;14.06;84.13;99411.11;1703158;82;21181;-71
2021/04/19 08:25:21;;;;;;;5.00;4.42;;;;;;;14.35;78.98;99409.79;1723472;83;22175;-74
2021/04/19 08:28:11;;;;;;;5.45;4.65;;;;;;;14.18;79.20;99403.19;1851061;77;22633;-68
2021/04/19 08:30:40;;;;;;;5.57;4.73;;;;;;;13.86;79.67;99407.16;1818748;78;21046;-70
2021/04/19 08:33:09;;;;;;;5.17;4.62;;;;;;;13.90;75.74;99393.39;1787198;78;21194;-70
2021/04/19 08:35:41;;;;;;;6.62;4.08;;;;;;;14.04;78.13;99406.52;1818567;78;21053;-72
2021/04/19 08:38:10;;;;;;;7.70;4.65;;;;;;;14.01;74.32;99398.17;1818535;78;21031;-69
2021/04/19 08:40:39;;;;;;;6.20;4.42;;;;;;;13.87;74.14;99398.00;1818436;78;21058;-68
2021/04/19 08:43:11;;;;;;;6.47;4.87;;;;;;;13.94;73.92;99397.95;1748869;82;21041;-70
2021/04/19 08:45:41;;;;;;;6.10;4.25;;;;;;;14.12;76.54;99394.33;1818589;78;21363;-71
2021/04/19 08:48:10;;;;;;;10.35;5.87;;;;;;;14.26;73.02;99388.55;1818578;78;21038;-71
2021/04/19 08:50:39;;;;;;;6.50;4.62;;;;;;;14.42;74.75;99397.33;1818437;78;20955;-71
2021/04/19 08:53:10;;;;;;;6.90;5.47;;;;;;;14.78;73.16;99388.39;1818619;78;21180;-70
2021/04/19 08:55:38;;;;;;;8.95;5.25;;;;;;;15.09;68.97;99385.38;1747521;82;21652;-69
2021/04/19 08:58:12;;;;;;;5.33;4.33;;;;;;;14.79;71.32;99391.34;1817454;78;21192;-70
2021/04/19 09:00:43;;;;;;;6.45;4.80;;;;;;;14.81;68.64;99387.56;1816887;78;21211;-68
2021/04/19 09:03:21;;;;;;;8.20;5.30;;;;;;;14.68;67.87;99389.84;1817514;78;21156;-70
2021/04/19 09:05:50;;;;;;;7.80;4.80;;;;;;;14.81;66.36;99389.72;1818522;78;21555;-73
2021/04/19 09:08:19;;;;;;;10.30;4.67;;;;;;;15.09;65.49;99385.38;1748858;82;21152;-71
2021/04/19 09:11:06;;;;;;;7.95;5.40;;;;;;;15.49;66.19;99385.17;1818652;78;24759;-72
2021/04/19 09:13:35;;;;;;;7.37;5.15;;;;;;;15.49;64.66;99383.27;1748909;82;21021;-70
2021/04/19 09:16:43;;;;;;;7.45;3.98;;;;;;;15.05;66.82;99378.92;1818450;78;21108;-71
2021/04/19 09:47:51;;;;;;;12.55;5.87;;;;;;;13.53;74.91;99383.88;1717329;83;20996;-70
2021/04/19 09:51:37;;;;;;;10.63;5.53;;;;;;;13.04;74.56;99384.58;1844116;77;22778;-68
2021/04/19 09:58:00;;;;;;;9.30;5.15;;;;;;;12.65;77.09;99390.03;1703471;82;21019;-69
2021/04/19 10:01:07;;;;;;;7.78;4.62;;;;;;;12.54;74.86;99391.14;1805883;79;22362;-67
2021/04/19 10:03:50;;;;;;;5.83;4.47;;;;;;;12.44;75.01;99389.78;1630647;87;22173;-69
2021/04/19 10:07:33;;;;;;;5.17;4.67;;;;;;;12.42;75.14;99395.97;1574578;90;21225;-70
2021/04/19 10:10:12;;;;;;;5.17;4.60;;;;;;;12.44;75.60;99400.55;1828112;77;27839;-67
2021/04/19 10:14:05;;;;;;;6.87;4.75;;;;;;;12.50;76.18;99395.44;1728314;83;20966;-69
2021/04/19 10:17:26;;;;;;;10.70;6.20;;;;;;;12.37;75.90;99405.39;1649205;87;21057;-68
2021/04/19 10:20:25;;;;;;;9.58;6.50;;;;;;;12.22;76.88;99402.16;1649050;85;21271;-70
2021/04/19 10:23:42;;;;;;;8.20;6.03;;;;;;;12.32;76.23;99404.88;1627822;87;21112;-70
2021/04/19 10:26:41;;;;;;;9.80;5.72;;;;;;;12.35;78.08;99403.53;1875886;76;22720;-70
2021/04/19 10:30:02;;;;;;;11.55;7.08;;;;;;;12.37;75.75;99400.00;1710394;83;21160;-67
2021/04/19 10:32:48;;;;;;;9.58;6.87;;;;;;;12.36;75.81;99394.37;1691046;83;21345;-66
2021/04/19 10:39:28;;;;;;;5.25;4.47;;;;;;;12.56;70.55;99399.73;1733046;81;21085;-67
2021/04/19 10:54:40;;;;;;;8.43;4.65;;;;;;;13.13;69.92;99398.28;1656404;86;21098;-69
2021/04/19 10:58:08;;;;;;;4.40;4.00;;;;;;;13.17;69.79;99389.38;1587953;89;21086;-68
2021/04/19 11:01:20;;;;;;;4.78;3.77;;;;;;;13.48;66.59;99397.39;1806368;77;22780;-70
2021/04/19 11:48:29;;;;;;;7.22;3.70;;;;;;;12.88;66.48;99390.53;1627786;88;20969;-69
2021/04/19 12:18:49;;;;;;;15.78;8.98;;;;;;;12.84;61.11;99361.20;1611563;89;21112;-68
2021/04/19 12:25:29;;;;;;;17.57;9.60;;;;;;;12.90;63.39;99350.67;1523672;92;21664;-68
2021/04/19 12:28:28;;;;;;;5.08;4.08;;;;;;;13.24;65.44;99352.71;1811722;78;28108;-70
2021/04/19 12:31:48;;;;;;;4.90;3.40;;;;;;;13.16;64.06;99357.34;1732044;82;21654;-67
2021/04/19 12:35:23;;;;;;;10.15;5.47;;;;;;;12.97;67.11;99333.67;1842181;77;22824;-70
2021/04/19 12:39:44;;;;;;;21.77;10.70;;;;;;;12.96;67.85;99342.02;1627151;87;21604;-70
2021/04/19 12:55:10;;;;;;;26.93;13.88;;;;;;;12.80;65.42;99341.27;1651286;85;21461;-69
2021/04/19 12:58:32;;;;;;;6.47;4.25;;;;;;;12.96;65.41;99344.20;1875088;75;22663;-70
2021/04/19 13:02:22;;;;;;;5.03;3.72;;;;;;;12.93;65.80;99342.03;1750384;81;21127;-68
2021/04/19 13:05:57;;;;;;;7.67;4.72;;;;;;;12.80;66.34;99345.31;1699032;84;21142;-68
2021/04/19 14:16:52;;;;;;;5.37;4.47;;;;;;;11.67;73.31;99327.83;1675704;79;85423;-71
2021/04/19 14:19:21;;;;;;;7.70;4.80;;;;;;;11.54;74.89;99331.84;1686861;85;22634;-71
2021/04/19 14:21:49;;;;;;;10.30;4.83;;;;;;;11.50;75.49;99325.38;1685791;83;21160;-72
2021/04/19 14:24:17;;;;;;;5.35;4.62;;;;;;;11.50;76.19;99329.95;1711542;81;21186;-71
2021/04/19 14:26:47;;;;;;;7.70;5.30;;;;;;;11.43;76.73;99335.56;1751360;81;21078;-70
2021/04/19 14:29:16;;;;;;;12.45;8.38;;;;;;;11.40;77.54;99332.61;1751102;81;21240;-72
2021/04/19 14:31:44;;;;;;;13.85;6.80;;;;;;;11.37;78.35;99331.27;1751101;81;21207;-71
2021/04/19 14:34:13;;;;;;;9.45;6.58;;;;;;;11.38;77.80;99335.55;1750800;81;28325;-71
2021/04/19 14:36:44;;;;;;;10.82;7.50;;;;;;;11.30;78.53;99334.19;1750239;81;21176;-72
2021/04/19 14:39:13;;;;;;;19.30;10.18;;;;;;;11.21;79.34;99337.10;1749699;81;21188;-72
2021/04/19 14:41:43;;;;;;;9.93;6.50;;;;;;;11.20;81.01;99340.08;1749419;81;21156;-73
2021/04/19 14:44:10;;;;;;;7.75;5.83;;;;;;;11.20;81.26;99342.22;1750831;81;21633;-71
2021/04/19 14:46:40;;;;;;;12.15;8.08;;;;;;;11.17;81.53;99338.72;1737150;81;21574;-71
2021/04/19 14:49:08;;;;;;;23.47;12.68;;;;;;;11.14;81.72;99335.99;1691478;82;21624;-72
2021/04/19 14:51:38;;;;;;;10.65;7.33;;;;;;;11.12;81.36;99341.36;1700013;82;21081;-72
2021/04/19 14:54:06;;;;;;;11.83;7.00;;;;;;;11.09;80.34;99337.32;1731639;82;21056;-72
2021/04/19 14:56:35;;;;;;;26.15;13.25;;;;;;;11.04;80.20;99335.16;1734746;82;21264;-72
2021/04/19 14:59:03;;;;;;;13.00;8.10;;;;;;;10.99;80.51;99338.63;1720815;81;21295;-71
2021/04/19 15:01:32;;;;;;;31.20;14.70;;;;;;;10.89;79.89;99334.01;1732324;82;21042;-69
2021/04/19 15:04:07;;;;;;;16.73;9.85;;;;;;;10.85;80.52;99337.47;1709110;82;21571;-70
2021/04/19 15:06:36;;;;;;;22.45;12.07;;;;;;;10.80;80.44;99328.05;1733038;81;21168;-69
2021/04/19 15:09:07;;;;;;;23.10;16.30;;;;;;;10.78;80.96;99334.20;1710851;83;22091;-71
2021/04/19 15:11:36;;;;;;;18.37;12.33;;;;;;;10.75;81.57;99330.17;1710711;83;21138;-70
2021/04/19 15:14:04;;;;;;;16.77;9.68;;;;;;;10.70;81.55;99332.83;1712210;83;21256;-70
2021/04/19 15:16:32;;;;;;;79.15;32.05;;;;;;;10.66;81.67;99331.21;1710625;82;21157;-72
2021/04/19 15:19:00;;;;;;;33.58;13.95;;;;;;;10.63;82.39;99330.39;1711561;83;21122;-72
2021/04/19 15:21:28;;;;;;;26.50;11.85;;;;;;;10.62;82.36;99328.77;1710900;83;21217;-71
2021/04/19 15:23:56;;;;;;;81.10;35.43;;;;;;;10.60;82.56;99327.41;1710973;83;21760;-72
2021/04/19 15:26:26;;;;;;;26.40;15.32;;;;;;;10.56;83.68;99335.69;1711260;83;21348;-69
2021/04/19 15:28:56;;;;;;;14.68;9.18;;;;;;;10.54;83.81;99330.59;1710939;83;21130;-71
2021/04/19 15:31:25;;;;;;;13.03;9.38;;;;;;;10.50;83.54;99326.27;1722568;82;21160;-72